This is the latest recevied weather packets stored in our database for station/object K6ALF. If no packets are shown the sender has not sent any weather packets the latest 10 day(s).
| Time | Temp. | Humidity | Pressure | Rain* | Wind** | Luminosity | Snow |
|---|---|---|---|---|---|---|---|
| 1777389322 | 13.89° C | 79% | 1019.9 hPa | 0 mm | - | - | - |
| 1777386622 | 11.67° C | 84% | 1019.6 hPa | 0 mm | - | - | - |
| 1777379420 | 10° C | 90% | 1018.3 hPa | 0 mm | - | - | - |
| 1777376754 | 10° C | 89% | 1018.3 hPa | 0 mm | - | - | - |
| 1777371320 | 11.11° C | 86% | 1018 hPa | 0 mm | - | - | - |
| 1777369520 | 11.11° C | 85% | 1018 hPa | 0 mm | - | - | - |
| 1777365020 | 11.67° C | 86% | 1018.6 hPa | 0 mm | - | - | - |
| 1777360521 | 12.78° C | 82% | 1018.5 hPa | 0 mm | - | - | - |
| 1777358721 | 13.33° C | 81% | 1018.3 hPa | 0 mm | - | - | - |
| 1777356923 | 14.44° C | 76% | 1018.1 hPa | 0 mm | - | - | - |
| 1777355121 | 15° C | 74% | 1018 hPa | 0 mm | - | - | - |
| 1777354223 | 15° C | 73% | 1018 hPa | 0 mm | - | - | - |
| 1777352422 | 15.56° C | 71% | 1017.8 hPa | 0 mm | - | - | - |
| 1777345222 | 18.33° C | 50% | 1016.1 hPa | 0 mm | - | - | - |
| 1777336221 | 20° C | 46% | 1015.3 hPa | 0 mm | - | - | - |
| 1777332621 | 19.44° C | 49% | 1015.2 hPa | 0 mm | - | - | - |
| 1777309284 | 15.56° C | 68% | 1016.9 hPa | 0 mm | - | - | - |
| 1777297520 | 8.89° C | 90% | 1015.8 hPa | 0 mm | - | - | - |
| 1777293054 | 8.89° C | 88% | 1015.2 hPa | 0 mm | - | - | - |
| 1777292120 | 9.44° C | 88% | 1015.3 hPa | 0 mm | - | - | - |
| 1777279522 | 11.11° C | 81% | 1015 hPa | 0 mm | - | - | - |
| 1777278654 | 11.11° C | 81% | 1015.1 hPa | 0 mm | - | - | - |
| 1777268723 | 12.78° C | 72% | 1014.7 hPa | 0 mm | - | - | - |
| 1777255221 | 17.22° C | 49% | 1012.6 hPa | 0 mm | - | - | - |
| 1777252553 | 17.78° C | 52% | 1012.4 hPa | 0 mm | - | - | - |
* Rain latest hour (hover to see other rain measurements)
** Current wind speed in m/s (hover to see current wind gust speed)